Terminal Aerodrome Forecast
Issued by NWS Hastings, NE

Home | Current Version | Previous Version | Text Only | Print | Product List | Glossary On
Versions: 1 2 3 4 5 6 7 8 9 10 11 12 13 14 15 16 17 18 19 20 21 22 23 24 25 26 27 28 29 30 31 32
264
FTUS43 KGID 230520
TAFGRI
TAF
KGRI 230520Z 2306/2406 VRB04KT P6SM OVC070
     FM230900 VRB05KT P6SM SCT090
     FM231800 13007KT P6SM FEW060 SCT120=

USA.gov is the U.S. government's official web portal to all federal, state and local government web resources and services.